首页
METAR-TAF:

METAR-TAF

机场 :

贾特拉帕蒂·希瓦吉国际机场

孟买, 印度

纬度: 19-07N, 经度: 072-51E, 海拔: 8米

当前天气观测

该预报发布于37分钟前的14:30 UTC
风速5节,风向北转西北
温度 32°C
湿度 43%
气压 1012 hPa
能見度: 4000

METAR: VABB 231430Z 34005KT 4000 FU NSC 32/18 Q1012 NOSIG

时间: 20:37 (15:07 UTC)

预报

该预报发布于1小时和7分钟前的14:00 UTC
预报有效从23日的 15点(UTC)到 23日的 24点(UTC)
风速6节,风向西北
能見度: 4000
霾, 烟
成为
从 23日的 18点(UTC)到 23日的 20点(UTC)
风速3节,风向多变
能見度: 3000
霾, 烟
成为
从 23日的 22点(UTC)到 23日的 24点(UTC)
能見度: 2000
少量云层高于10000英尺
轻雾, 霾

TAF: VABB 231400Z 2315/2324 32006KT 4000 HZ FU NSC BECMG 2318/2320 VRB03KT 3000 HZ FU BECMG 2322/2324 2000 BR HZ FEW100

超过4000个机场的气象观测和天气预报(METAR&TAF报告)。

可查询的气象台以黄色和红色小点在地图上表示。

将鼠标移到小点上方,可查看气象台名称。

然后点击查看天气观测和预报。

如需切换地图:点击带黑十字的绿色按钮放大地图;点击带横线的绿色按钮缩小地图;或者点击绿色箭头查看邻近地区的地图。


METAR-TAF: